This is the latest recevied weather packets stored in our database for station/object AF9W-5. If no packets are shown the sender has not sent any weather packets the latest 1 day(s).
| Time | Temp. | Humidity | Pressure | Rain* | Wind** | Luminosity | Snow |
|---|---|---|---|---|---|---|---|
| 1778019860 | 22.78° C | 34% | 1010 hPa | 0 mm | 0.89 m/s, 301° | 702 W/m² | - |
| 1778019556 | 22.78° C | 34% | 1009.7 hPa | 0 mm | 0.89 m/s, 59° | 705 W/m² | - |
| 1778019253 | 22.78° C | 35% | 1010 hPa | 0 mm | 0.45 m/s, 239° | 714 W/m² | - |
| 1778018950 | 22.22° C | 34% | 1010.1 hPa | 0 mm | 1.79 m/s, 191° | 737 W/m² | - |
| 1778018647 | 22.22° C | 35% | 1010 hPa | 0 mm | 2.24 m/s, 244° | 185 W/m² | - |
| 1778018345 | 23.33° C | 34% | 1010.4 hPa | 0 mm | 1.79 m/s, 170° | 746 W/m² | - |
| 1778018043 | 23.89° C | 35% | 1010.1 hPa | 0 mm | 0.45 m/s, 114° | 723 W/m² | - |
| 1778017741 | 23.89° C | 35% | 1010.1 hPa | 0 mm | 0.45 m/s, 17° | 795 W/m² | - |
| 1778017438 | 23.89° C | 35% | 1010.3 hPa | 0 mm | 0.89 m/s, 110° | 802 W/m² | - |
| 1778017135 | 23.33° C | 38% | 1010.2 hPa | 0 mm | 1.34 m/s, 268° | 830 W/m² | - |
| 1778016833 | 23.33° C | 40% | 1010.4 hPa | 0 mm | 0.89 m/s, 254° | 856 W/m² | - |
| 1778016528 | 22.78° C | 41% | 1010.6 hPa | 0 mm | 0.45 m/s, 76° | 845 W/m² | - |
| 1778016226 | 21.67° C | 43% | 1010.4 hPa | 0 mm | 0.45 m/s, 305° | 793 W/m² | - |
| 1778015921 | 21.11° C | 47% | 1010.8 hPa | 0 mm | 0.45 m/s, 57° | 671 W/m² | - |
| 1778015619 | 21.67° C | 45% | 1010.3 hPa | 0 mm | 0.89 m/s, 221° | 184 W/m² | - |
| 1778015316 | 21.11° C | 48% | 1010.7 hPa | 0 mm | 0 m/s | 176 W/m² | - |
| 1778015013 | 21.11° C | 48% | 1010.6 hPa | 0 mm | 0.45 m/s, 80° | 180 W/m² | - |
| 1778014709 | 21.11° C | 49% | 1010.7 hPa | 0 mm | 1.34 m/s, 320° | 225 W/m² | - |
| 1778014408 | 21.11° C | 50% | 1010.7 hPa | 0 mm | 0.89 m/s, 180° | 256 W/m² | - |
| 1778014104 | 21.67° C | 49% | 1010.6 hPa | 0 mm | 0.45 m/s, 181° | 173 W/m² | - |
| 1778013802 | 22.22° C | 47% | 1010.7 hPa | 0 mm | 1.34 m/s, 235° | 284 W/m² | - |
| 1778013499 | 21.67° C | 48% | 1010.8 hPa | 0 mm | 0.45 m/s, 177° | 944 W/m² | - |
| 1778013196 | 21.11° C | 48% | 1010.8 hPa | 0 mm | 0.89 m/s, 341° | 965 W/m² | - |
| 1778012892 | 21.11° C | 44% | 1010.7 hPa | 0 mm | 3.58 m/s, 172° | 217 W/m² | - |
| 1778012588 | 21.67° C | 47% | 1010.9 hPa | 0 mm | 1.34 m/s, 189° | 898 W/m² | - |
* Rain latest hour (hover to see other rain measurements)
** Current wind speed in m/s (hover to see current wind gust speed)